Terminal Aerodrome Forecast
Issued by NWS

Home | Current Version | Previous Version | Text Only | Print | Product List | Glossary On
Versions: 1 2 3 4 5 6 7 8 9 10 11 12 13 14 15 16 17 18 19 20 21 22 23 24 25 26 27
000
FTUS42 KMFL 251131
TAFMIA
TAF
KMIA 251131Z 2512/2612 00000KT P6SM FEW040 FEW060 SCT250
     FM251400 32005KT P6SM FEW030
     FM251900 16010KT P6SM VCSH SCT035 PROB30 2521/2524 4SM SHRA
      SCT015 BKN025
     FM260000 VRB03KT P6SM FEW025=

USA.gov is the U.S. government's official web portal to all federal, state and local government web resources and services.